KDEW

Deer Park Airport

Deer Park, Washington, USA
METAR KDEW 182332Z AUTO 22003KT 3SM HZ CLR 28/07 A3013 RMK AO2 T02780072
Observed Flight Rules
Aug-18 @ 23:32 UTC (12 minutes ago) Marginal Visual Flight Rules
Wind Visibility Clouds Conditions
220° at 3 knots 3 miles
  • Clear skies
  • Haze
Temperatures Readings
Current 28°C / 82°F
Dewpoint 7°C / 45°F
Humidity 26%
Altimeter 30.13" Hg
Pressure 1020 hPa
Elevation 674
METAR KDEW 182332Z AUTO 22003KT 3SM HZ CLR 28/07 A3013 RMK AO2 T02780072
Observed Flight Rules
Aug-18 @ 23:32 UTC
(12 minutes ago)
MVFR
Wind Visibility
220° at 3 knots 3 miles
Clouds
  • Clear skies
Conditions
  • Haze
Temperature Dewpoint
28°C / 82°F 7°C / 45°F
Humidity Altimeter Pressure
26% 30.13" Hg 1020 hPa